createdAt,value
2023-01-29T00:00:05.962Z,0.68
2023-01-29T00:00:55.954Z,0.70
2023-01-29T00:01:46.003Z,0.70
2023-01-29T00:02:35.942Z,0.68
2023-01-29T00:03:25.987Z,0.70
2023-01-29T00:04:15.927Z,0.68
2023-01-29T00:05:25.543Z,0.68
2023-01-29T00:05:56.897Z,0.64
2023-01-29T00:06:45.907Z,0.67
2023-01-29T00:07:35.918Z,0.64
2023-01-29T00:08:25.860Z,0.64
2023-01-29T00:09:15.875Z,0.64
2023-01-29T00:10:05.886Z,0.64
2023-01-29T00:10:55.858Z,0.63
2023-01-29T00:11:45.847Z,0.62
2023-01-29T00:12:35.828Z,0.63
2023-01-29T00:13:25.809Z,0.62
2023-01-29T00:14:15.808Z,0.63
2023-01-29T00:15:05.836Z,0.63
2023-01-29T00:15:55.815Z,0.63
2023-01-29T00:16:45.821Z,0.63
2023-01-29T00:17:35.767Z,0.63
2023-01-29T00:18:25.788Z,0.63
2023-01-29T00:19:15.756Z,0.62
2023-01-29T00:20:05.770Z,0.62
2023-01-29T00:20:55.754Z,0.63
2023-01-29T00:21:45.749Z,0.62
2023-01-29T00:22:35.738Z,0.62
2023-01-29T00:23:25.711Z,0.59
2023-01-29T00:24:15.753Z,0.59
2023-01-29T00:25:05.688Z,0.59
2023-01-29T00:25:55.719Z,0.59
2023-01-29T00:26:45.715Z,0.59
2023-01-29T00:27:35.667Z,0.57
2023-01-29T00:28:25.654Z,0.59
2023-01-29T00:29:15.646Z,0.60
2023-01-29T00:30:05.635Z,0.57
2023-01-29T00:30:55.678Z,0.59
2023-01-29T00:31:45.778Z,0.59
2023-01-29T00:32:35.623Z,0.59
2023-01-29T00:33:25.611Z,0.59
2023-01-29T00:34:15.593Z,0.60
2023-01-29T00:35:05.573Z,0.60
2023-01-29T00:35:55.579Z,0.59
2023-01-29T00:36:45.596Z,0.57
2023-01-29T00:37:35.561Z,0.59
2023-01-29T00:38:25.563Z,0.60
2023-01-29T00:39:15.576Z,0.59
2023-01-29T00:40:05.530Z,0.59
2023-01-29T00:40:55.522Z,0.59
2023-01-29T00:41:45.546Z,0.59
2023-01-29T00:42:35.517Z,0.60
2023-01-29T00:43:25.483Z,0.59
2023-01-29T00:44:15.518Z,0.56
2023-01-29T00:45:05.467Z,0.56
2023-01-29T00:45:55.460Z,0.57
2023-01-29T00:46:45.578Z,0.57
2023-01-29T00:47:35.500Z,0.56
2023-01-29T00:48:25.445Z,0.57
2023-01-29T00:49:15.442Z,0.57
2023-01-29T00:50:05.454Z,0.57
2023-01-29T00:50:55.422Z,0.60
2023-01-29T00:51:45.396Z,0.59
2023-01-29T00:52:35.429Z,0.62
2023-01-29T00:53:25.398Z,0.60
2023-01-29T00:54:15.379Z,0.57
2023-01-29T00:55:05.395Z,0.56
2023-01-29T00:55:55.393Z,0.53
2023-01-29T00:56:45.351Z,0.56
2023-01-29T00:57:35.338Z,0.53
2023-01-29T00:58:25.355Z,0.53
2023-01-29T00:59:15.337Z,0.52
2023-01-29T01:00:05.332Z,0.53
2023-01-29T01:00:55.356Z,0.53
2023-01-29T01:01:45.317Z,0.52
2023-01-29T01:02:35.299Z,0.52
2023-01-29T01:03:25.304Z,0.52
2023-01-29T01:04:15.283Z,0.51
2023-01-29T01:05:05.284Z,0.51
2023-01-29T01:05:55.243Z,0.53
2023-01-29T01:06:45.231Z,0.53
2023-01-29T01:07:35.263Z,0.52
2023-01-29T01:08:25.240Z,0.56
2023-01-29T01:09:15.206Z,0.57
2023-01-29T01:10:05.195Z,0.57
2023-01-29T01:10:55.207Z,0.57
2023-01-29T01:11:45.185Z,0.60
2023-01-29T01:12:35.184Z,0.59
2023-01-29T01:13:25.202Z,0.57
2023-01-29T01:14:15.163Z,0.59
2023-01-29T01:15:05.184Z,0.57
2023-01-29T01:15:55.184Z,0.59
2023-01-29T01:16:45.146Z,0.57
2023-01-29T01:17:35.130Z,0.59
2023-01-29T01:18:25.124Z,0.60
2023-01-29T01:19:15.513Z,0.60
2023-01-29T01:20:05.099Z,0.60
2023-01-29T01:20:55.104Z,0.63
2023-01-29T01:21:45.076Z,0.63
2023-01-29T01:22:35.074Z,0.62
2023-01-29T01:23:25.051Z,0.62
2023-01-29T01:24:15.122Z,0.60
2023-01-29T01:25:05.062Z,0.60
2023-01-29T01:25:55.021Z,0.62
2023-01-29T01:26:45.029Z,0.60
2023-01-29T01:27:35.025Z,0.60
2023-01-29T01:28:25.024Z,0.60
2023-01-29T01:29:14.982Z,0.60
2023-01-29T01:30:04.990Z,0.60
2023-01-29T01:30:55.028Z,0.62
2023-01-29T01:31:44.996Z,0.64
2023-01-29T01:32:34.975Z,0.64
2023-01-29T01:33:24.970Z,0.63
2023-01-29T01:34:14.938Z,0.59
2023-01-29T01:35:04.958Z,0.56
2023-01-29T01:35:54.928Z,0.53
2023-01-29T01:36:44.922Z,0.53
2023-01-29T01:37:34.899Z,0.49
2023-01-29T01:38:24.890Z,0.49
2023-01-29T01:39:14.870Z,0.49
2023-01-29T01:40:04.905Z,0.49
2023-01-29T01:40:54.861Z,0.49
2023-01-29T01:41:44.861Z,0.48
2023-01-29T01:42:34.847Z,0.48
2023-01-29T01:43:24.840Z,0.49
2023-01-29T01:44:14.816Z,0.51
2023-01-29T01:45:04.863Z,0.51
2023-01-29T01:45:54.840Z,0.52
2023-01-29T01:46:44.796Z,0.57
2023-01-29T01:47:34.808Z,0.56
2023-01-29T01:48:24.788Z,0.56
2023-01-29T01:49:14.768Z,0.57
2023-01-29T01:50:04.756Z,0.59
2023-01-29T01:50:54.781Z,0.59
2023-01-29T01:51:44.749Z,0.59
2023-01-29T01:52:34.764Z,0.60
2023-01-29T01:53:24.737Z,0.59
2023-01-29T01:54:14.724Z,0.62
2023-01-29T01:55:04.727Z,0.62
2023-01-29T01:55:54.697Z,0.60
2023-01-29T01:56:44.722Z,0.62
2023-01-29T01:57:34.696Z,0.60
2023-01-29T01:58:24.685Z,0.59
2023-01-29T01:59:14.673Z,0.62
2023-01-29T02:00:04.664Z,0.62
2023-01-29T02:00:54.668Z,0.62
2023-01-29T02:01:44.635Z,0.63
2023-01-29T02:02:34.624Z,0.60
2023-01-29T02:03:24.676Z,0.59
2023-01-29T02:04:14.611Z,0.53
2023-01-29T02:05:04.628Z,0.52
2023-01-29T02:05:54.598Z,0.49
2023-01-29T02:06:44.593Z,0.48
2023-01-29T02:07:34.564Z,0.48
2023-01-29T02:08:24.600Z,0.44
2023-01-29T02:09:14.561Z,0.41
2023-01-29T02:10:04.551Z,0.41
2023-01-29T02:10:54.563Z,0.43
2023-01-29T02:11:44.532Z,0.41
2023-01-29T02:12:34.511Z,0.40
2023-01-29T02:13:24.558Z,0.38
2023-01-29T02:14:14.503Z,0.40
2023-01-29T02:15:04.491Z,0.37
2023-01-29T02:15:54.497Z,0.37
2023-01-29T02:16:44.490Z,0.37
2023-01-29T02:17:34.482Z,0.35
2023-01-29T02:18:24.469Z,0.34
2023-01-29T02:19:14.448Z,0.34
2023-01-29T02:20:04.460Z,0.31
2023-01-29T02:20:54.440Z,0.33
2023-01-29T02:21:44.435Z,0.31
2023-01-29T02:22:34.435Z,0.31
2023-01-29T02:23:24.409Z,0.31
2023-01-29T02:24:14.545Z,0.33
2023-01-29T02:25:04.442Z,0.34
2023-01-29T02:25:54.395Z,0.35
2023-01-29T02:26:44.396Z,0.37
2023-01-29T02:27:34.387Z,0.37
2023-01-29T02:28:24.382Z,0.37
2023-01-29T02:29:14.338Z,0.35
2023-01-29T02:30:04.338Z,0.35
2023-01-29T02:30:54.364Z,0.33
2023-01-29T02:31:44.400Z,0.33
2023-01-29T02:32:34.317Z,0.30
2023-01-29T02:33:24.307Z,0.30
2023-01-29T02:34:14.277Z,0.31
2023-01-29T02:35:04.276Z,0.31
2023-01-29T02:35:54.255Z,0.30
2023-01-29T02:36:44.274Z,0.31
2023-01-29T02:37:34.257Z,0.30
2023-01-29T02:38:24.264Z,0.31
2023-01-29T02:39:14.233Z,0.33
2023-01-29T02:40:04.250Z,0.31
2023-01-29T02:40:54.214Z,0.33
2023-01-29T02:41:44.218Z,0.31
2023-01-29T02:42:34.206Z,0.31
2023-01-29T02:43:24.193Z,0.33
2023-01-29T02:44:14.163Z,0.34
2023-01-29T02:45:04.179Z,0.33
2023-01-29T02:45:54.265Z,0.37
2023-01-29T02:46:44.175Z,0.38
2023-01-29T02:47:34.152Z,0.35
2023-01-29T02:48:24.142Z,0.33
2023-01-29T02:49:14.155Z,0.30
2023-01-29T02:50:04.111Z,0.30
2023-01-29T02:50:54.100Z,0.30
2023-01-29T02:51:44.102Z,0.31
2023-01-29T02:52:34.092Z,0.33
2023-01-29T02:56:01.530Z,0.37
